| time (UTC) | temp F | wind direction | speed knots | gust knots | rain 1hr in | rain 24hr in | rain mn in | humidity % | barometer mb |
| 20260506024545 | 64 | 360 | 2.6 | 8.7 | 0.00 | 0.00 | 0.00 | 77 | 1008.5 |
| 20260506023018 | 65 | 360 | 3.5 | 12.2 | 0.00 | 0.00 | 0.00 | 76 | 1008.6 |
| 20260506021536 | 66 | 360 | 2.6 | 8.7 | 0.00 | 0.00 | 0.00 | 77 | 1007.8 |
| 20260506020025 | 66 | 360 | 0.9 | 5.2 | 0.00 | 0.00 | 0.00 | 76 | 1007.2 |
| 20260506014512 | 67 | 360 | 2.6 | 5.2 | 0.00 | 0.00 | 0.00 | 75 | 1007.3 |
| 20260506013039 | 67 | 360 | 1.7 | 4.3 | 0.00 | 0.00 | 0.00 | 74 | 1006.9 |
| 20260506011511 | 67 | 348 | 1.7 | 7.8 | 0.00 | 0.00 | 0.00 | 73 | 1006.5 |
| 20260506010051 | 68 | 360 | 2.6 | 7.0 | 0.00 | 0.00 | 0.00 | 72 | 1006.2 |
| 20260506004539 | 69 | 342 | 2.6 | 10.4 | 0.00 | 0.00 | 0.00 | 72 | 1005.9 |
| 20260506003010 | 70 | 26 | 1.7 | 7.8 | 0.00 | 0.00 | 0.00 | 71 | 1005.2 |
| 20260506001538 | 71 | 337 | 4.3 | 9.6 | 0.00 | 0.00 | 0.00 | 70 | 1005.3 |
| 20260506000032 | 72 | 360 | 2.6 | 10.4 | 0.00 | 0.00 | 0.00 | 70 | 1005.6 |
| 20260505234521 | 74 | 360 | 4.3 | 10.4 | 0.00 | 0.00 | 0.00 | 69 | 1005.5 |
| 20260505233110 | 75 | 360 | 4.3 | 10.4 | 0.00 | 0.00 | 0.00 | 67 | 1005.2 |
| 20260505231552 | 77 | 15 | 2.6 | 8.7 | 0.00 | 0.00 | 0.00 | 64 | 1004.8 |
| 20260505230035 | 78 | 321 | 2.6 | 7.0 | 0.00 | 0.00 | 0.00 | 64 | 1004.7 |
| 20260505224519 | 80 | 308 | 2.6 | 7.0 | 0.00 | 0.00 | 0.00 | 62 | 1004.7 |
| 20260505223059 | 81 | 296 | 2.6 | 8.7 | 0.00 | 0.00 | 0.00 | 60 | 1004.3 |
| 20260505223003 | 81 | 295 | 2.6 | 8.7 | 0.00 | 0.00 | 0.00 | 60 | 1004.4 |
| 20260505221553 | 83 | 291 | 1.7 | 7.0 | 0.00 | 0.00 | 0.00 | 57 | 1004.0 |
| 20260505220039 | 84 | 327 | 3.5 | 7.8 | 0.00 | 0.00 | 0.00 | 56 | 1004.0 |
| 20260505214523 | 85 | 327 | 1.7 | 8.7 | 0.00 | 0.00 | 0.00 | 56 | 1003.8 |
| 20260505213011 | 87 | 300 | 2.6 | 9.6 | 0.00 | 0.00 | 0.00 | 51 | 1003.9 |
| 20260505211545 | 87 | 360 | 1.7 | 10.4 | 0.00 | 0.00 | 0.00 | 49 | 1003.9 |
| 20260505210033 | 87 | 360 | 3.5 | 8.7 | 0.00 | 0.00 | 0.00 | 48 | 1004.1 |
| 20260505204518 | 88 | 279 | 2.6 | 7.0 | 0.00 | 0.00 | 0.00 | 50 | 1004.1 |
| 20260505203058 | 89 | 248 | 1.7 | 7.8 | 0.00 | 0.00 | 0.00 | 58 | 1004.0 |
| 20260505201514 | 88 | 212 | 2.6 | 6.1 | 0.00 | 0.00 | 0.00 | 58 | 1004.1 |
| 20260505200039 | 88 | 192 | 0.9 | 6.1 | 0.00 | 0.00 | 0.00 | 59 | 1004.4 |
| 20260505194609 | 89 | 225 | 1.7 | 7.8 | 0.00 | 0.00 | 0.00 | 60 | 1004.2 |
| 20260505193024 | 88 | 242 | 1.7 | 7.8 | 0.00 | 0.00 | 0.00 | 60 | 1004.3 |
| 20260505191545 | 88 | 130 | 0.9 | 7.8 | 0.00 | 0.00 | 0.00 | 63 | 1004.1 |
| 20260505190100 | 87 | 144 | 3.5 | 7.0 | 0.00 | 0.00 | 0.00 | 62 | 1004.2 |
| 20260505190003 | 86 | 218 | 3.5 | 7.0 | 0.00 | 0.00 | 0.00 | 62 | 1004.2 |
| 20260505184534 | 85 | 207 | 2.6 | 7.8 | 0.00 | 0.00 | 0.00 | 65 | 1004.0 |
| 20260505183047 | 84 | 178 | 2.6 | 11.3 | 0.00 | 0.00 | 0.00 | 63 | 1004.4 |
| 20260505181520 | 84 | 174 | 3.5 | 8.7 | 0.00 | 0.00 | 0.00 | 64 | 1004.4 |
| 20260505180042 | 85 | 183 | 2.6 | 10.4 | 0.00 | 0.00 | 0.00 | 64 | 1004.6 |
| 20260505174514 | 85 | 213 | 2.6 | 7.0 | 0.00 | 0.00 | 0.00 | 65 | 1004.4 |
| 20260505173046 | 84 | 155 | 2.6 | 8.7 | 0.00 | 0.00 | 0.00 | 68 | 1004.3 |
| 20260505171524 | 82 | 182 | 4.3 | 8.7 | 0.00 | 0.00 | 0.00 | 69 | 1004.4 |
| 20260505170055 | 81 | 192 | 2.6 | 6.1 | 0.00 | 0.00 | 0.00 | 70 | 1004.4 |
| 20260505164534 | 80 | 190 | 3.5 | 8.7 | 0.00 | 0.00 | 0.00 | 72 | 1004.4 |
| 20260505163056 | 80 | 144 | 2.6 | 7.8 | 0.00 | 0.00 | 0.00 | 73 | 1004.3 |
| 20260505161522 | 78 | 207 | 3.5 | 8.7 | 0.00 | 0.00 | 0.00 | 74 | 1004.2 |
| 20260505153032 | 77 | 167 | 2.6 | 7.8 | 0.00 | 0.00 | 0.00 | 76 | 1004.1 |
| 20260505151506 | 76 | 215 | 1.7 | 10.4 | 0.00 | 0.00 | 0.00 | 76 | 1004.0 |
| 20260505130104 | 70 | 360 | 3.5 | 10.4 | 0.00 | 0.00 | 0.00 | 86 | 1003.6 |
| 20260505124515 | 70 | 360 | 3.5 | 10.4 | 0.00 | 0.00 | 0.00 | 87 | 1003.4 |
| 20260505123033 | 70 | 360 | 2.6 | 10.4 | 0.00 | 0.00 | 0.00 | 87 | 1003.1 |
| 20260505121509 | 69 | 360 | 3.5 | 7.8 | 0.00 | 0.00 | 0.00 | 87 | 1003.2 |
| 20260505120037 | 69 | 360 | 2.6 | 7.8 | 0.00 | 0.00 | 0.00 | 87 | 1003.1 |
| 20260505114553 | 69 | 360 | 2.6 | 9.6 | 0.00 | 0.00 | 0.00 | 87 | 1003.0 |
| 20260505113013 | 69 | 360 | 2.6 | 7.8 | 0.00 | 0.00 | 0.00 | 87 | 1002.9 |
| 20260505111553 | 69 | 360 | 3.5 | 7.8 | 0.00 | 0.00 | 0.00 | 87 | 1002.9 |
| 20260505101523 | 70 | 360 | 2.6 | 8.7 | 0.00 | 0.00 | 0.00 | 85 | 1003.2 |
| 20260505100057 | 70 | 360 | 3.5 | 8.7 | 0.00 | 0.00 | 0.00 | 85 | 1002.9 |
| 20260505094541 | 70 | 360 | 3.5 | 10.4 | 0.00 | 0.00 | 0.00 | 84 | 1003.0 |
| 20260505093051 | 71 | 360 | 4.3 | 12.2 | 0.00 | 0.00 | 0.00 | 83 | 1002.8 |
| 20260505091531 | 71 | 360 | 4.3 | 11.3 | 0.00 | 0.00 | 0.00 | 83 | 1003.2 |
| 20260505090043 | 71 | 360 | 4.3 | 12.2 | 0.00 | 0.00 | 0.00 | 82 | 1003.4 |
| 20260505084520 | 72 | 360 | 4.3 | 12.2 | 0.00 | 0.00 | 0.00 | 81 | 1003.4 |
| 20260505083031 | 72 | 360 | 3.5 | 9.6 | 0.00 | 0.00 | 0.00 | 80 | 1003.5 |
| 20260505081550 | 72 | 360 | 4.3 | 12.2 | 0.00 | 0.00 | 0.00 | 79 | 1003.4 |
| 20260505080020 | 73 | 360 | 3.5 | 12.2 | 0.00 | 0.00 | 0.00 | 77 | 1003.6 |
| 20260505074538 | 73 | 360 | 5.2 | 10.4 | 0.00 | 0.00 | 0.00 | 76 | 1003.7 |
| 20260505073057 | 73 | 360 | 5.2 | 12.2 | 0.00 | 0.00 | 0.00 | 76 | 1004.0 |
| 20260505071547 | 73 | 360 | 4.3 | 12.2 | 0.00 | 0.00 | 0.00 | 75 | 1004.3 |
| 20260505070047 | 74 | 360 | 4.3 | 11.3 | 0.00 | 0.00 | 0.00 | 74 | 1004.3 |
| 20260505064525 | 74 | 360 | 5.2 | 11.3 | 0.00 | 0.00 | 0.00 | 74 | 1004.6 |
| 20260505063038 | 74 | 360 | 6.1 | 12.2 | 0.00 | 0.00 | 0.00 | 73 | 1004.8 |
| 20260505061511 | 74 | 360 | 4.3 | 11.3 | 0.00 | 0.00 | 0.00 | 72 | 1004.7 |
| 20260505060032 | 75 | 360 | 3.5 | 8.7 | 0.00 | 0.00 | 0.00 | 72 | 1004.8 |
| 20260505054550 | 75 | 360 | 4.3 | 10.4 | 0.00 | 0.00 | 0.00 | 72 | 1004.9 |
| 20260505053012 | 75 | 360 | 3.5 | 8.7 | 0.00 | 0.00 | 0.00 | 72 | 1004.9 |
| 20260505051538 | 75 | 360 | 5.2 | 10.4 | 0.00 | 0.00 | 0.00 | 72 | 1004.9 |
| 20260505041549 | 74 | 360 | 4.3 | 8.7 | 0.00 | 0.00 | 0.00 | 73 | 1005.2 |
| 20260505040021 | 74 | 360 | 5.2 | 9.6 | 0.00 | 0.00 | 0.00 | 73 | 1005.2 |
| 20260505034532 | 74 | 360 | 4.3 | 11.3 | 0.00 | 0.00 | 0.00 | 72 | 1005.2 |
| 20260505033048 | 74 | 360 | 4.3 | 10.4 | 0.00 | 0.00 | 0.00 | 72 | 1005.2 |
| 20260505031600 | 75 | 360 | 3.5 | 11.3 | 0.00 | 0.00 | 0.00 | 72 | 1005.1 |
| 20260505031502 | 75 | 360 | 4.3 | 11.3 | 0.00 | 0.00 | 0.00 | 72 | 1005.1 |
| 20260505030038 | 75 | 360 | 4.3 | 9.6 | 0.00 | 0.00 | 0.00 | 72 | 1005.2 |